createdAt,value
2022-11-02T00:00:40.461Z,6.28
2022-11-02T00:03:41.944Z,6.21
2022-11-02T00:06:44.625Z,6.20
2022-11-02T00:09:46.136Z,6.08
2022-11-02T00:12:47.844Z,5.89
2022-11-02T00:15:49.399Z,5.63
2022-11-02T00:18:51.523Z,5.46
2022-11-02T00:21:53.019Z,5.40
2022-11-02T00:24:54.503Z,5.34
2022-11-02T00:27:56.034Z,5.27
2022-11-02T00:30:57.742Z,5.19
2022-11-02T00:34:00.719Z,5.16
2022-11-02T00:37:03.472Z,5.10
2022-11-02T00:40:05.232Z,5.06
2022-11-02T00:43:06.744Z,5.02
2022-11-02T00:46:08.768Z,5.02
2022-11-02T00:49:11.031Z,4.97
2022-11-02T00:52:12.870Z,4.95
2022-11-02T00:55:15.504Z,4.94
2022-11-02T00:58:19.107Z,4.91
2022-11-02T01:01:20.784Z,4.91
2022-11-02T01:04:22.419Z,4.91
2022-11-02T01:07:23.917Z,4.89
2022-11-02T01:10:26.261Z,4.92
2022-11-02T01:13:27.899Z,4.89
2022-11-02T01:16:29.404Z,4.88
2022-11-02T01:19:30.891Z,4.88
2022-11-02T01:22:32.550Z,4.89
2022-11-02T01:25:34.033Z,4.94
2022-11-02T01:28:35.788Z,4.96
2022-11-02T01:31:37.355Z,4.99
2022-11-02T01:34:38.840Z,5.03
2022-11-02T01:37:40.421Z,5.10
2022-11-02T01:40:43.498Z,5.11
2022-11-02T01:43:45.514Z,5.12
2022-11-02T01:46:47.030Z,5.17
2022-11-02T01:49:50.917Z,5.13
2022-11-02T01:52:52.464Z,5.06
2022-11-02T01:55:53.970Z,5.01
2022-11-02T01:58:57.252Z,4.95
2022-11-02T02:01:59.044Z,4.91
2022-11-02T02:05:05.463Z,4.91
2022-11-02T02:08:08.420Z,4.84
2022-11-02T02:11:28.889Z,4.80
2022-11-02T02:14:30.424Z,4.84
2022-11-02T02:17:43.195Z,4.83
2022-11-02T02:20:48.788Z,4.81
2022-11-02T02:24:28.616Z,4.85
2022-11-02T02:27:30.595Z,5.27
2022-11-02T02:30:34.111Z,5.29
2022-11-02T02:33:36.406Z,5.25
2022-11-02T02:36:59.336Z,5.21
2022-11-02T02:40:05.533Z,5.19
2022-11-02T02:43:22.250Z,5.18
2022-11-02T02:46:34.747Z,5.23
2022-11-02T02:49:42.731Z,5.35
2022-11-02T02:52:44.303Z,5.50
2022-11-02T02:55:46.724Z,5.51
2022-11-02T02:58:57.675Z,5.39
2022-11-02T03:01:59.554Z,5.32
2022-11-02T03:05:01.186Z,5.30
2022-11-02T03:08:05.022Z,5.28
2022-11-02T03:11:14.220Z,5.17
2022-11-02T03:14:36.089Z,5.17
2022-11-02T03:17:40.468Z,5.17
2022-11-02T03:20:45.512Z,5.17
2022-11-02T03:23:59.282Z,5.08
2022-11-02T03:27:00.966Z,5.01
2022-11-02T03:30:13.926Z,4.98
2022-11-02T03:33:20.207Z,5.05
2022-11-02T03:36:22.978Z,5.19
2022-11-02T03:39:28.324Z,5.12
2022-11-02T03:42:30.685Z,5.11
2022-11-02T03:45:36.015Z,5.02
2022-11-02T03:48:40.691Z,4.93
2022-11-02T03:51:43.392Z,4.86
2022-11-02T03:54:48.991Z,5.11
2022-11-02T03:57:51.516Z,5.02
2022-11-02T04:01:00.211Z,4.87
2022-11-02T04:04:03.798Z,5.04
2022-11-02T04:07:05.560Z,5.06
2022-11-02T04:10:07.383Z,5.19
2022-11-02T04:13:47.694Z,5.24
2022-11-02T04:16:49.292Z,5.12
2022-11-02T04:19:57.827Z,4.84
2022-11-02T04:23:20.323Z,4.70
2022-11-02T04:26:22.567Z,4.54
2022-11-02T04:29:24.228Z,4.50
2022-11-02T04:32:44.488Z,4.55
2022-11-02T04:35:49.977Z,4.60
2022-11-02T04:38:52.711Z,4.46
2022-11-02T04:42:02.888Z,4.41
2022-11-02T04:45:09.943Z,4.34
2022-11-02T04:48:11.884Z,4.28
2022-11-02T04:51:14.108Z,4.31
2022-11-02T04:54:15.698Z,4.43
2022-11-02T04:57:18.803Z,4.45
2022-11-02T05:00:20.853Z,4.43
2022-11-02T05:03:22.728Z,4.40
2022-11-02T05:06:24.530Z,4.35
2022-11-02T05:09:27.643Z,4.21
2022-11-02T05:12:29.502Z,4.11
2022-11-02T05:15:33.432Z,4.10
2022-11-02T05:18:37.752Z,4.08
2022-11-02T05:21:39.874Z,3.98
2022-11-02T05:24:42.085Z,3.88
2022-11-02T05:27:43.786Z,3.69
2022-11-02T05:30:46.202Z,3.62
2022-11-02T05:33:48.039Z,3.57
2022-11-02T05:36:53.319Z,3.65
2022-11-02T05:39:55.305Z,3.67
2022-11-02T05:43:01.755Z,3.79
2022-11-02T05:46:04.167Z,3.89
2022-11-02T05:49:05.699Z,3.93
2022-11-02T05:52:07.351Z,3.87
2022-11-02T05:55:09.031Z,3.70
2022-11-02T05:58:10.608Z,3.60
2022-11-02T06:01:12.171Z,3.47
2022-11-02T06:04:13.849Z,3.36
2022-11-02T06:07:15.482Z,3.25
2022-11-02T06:10:17.282Z,3.34
2022-11-02T06:13:18.851Z,3.54
2022-11-02T06:16:23.229Z,3.59
2022-11-02T06:19:25.103Z,3.81
2022-11-02T06:22:26.652Z,4.11
2022-11-02T06:25:28.275Z,4.37
2022-11-02T06:28:29.938Z,4.50
2022-11-02T06:31:32.136Z,4.59
2022-11-02T06:34:33.838Z,4.52
2022-11-02T06:37:35.483Z,4.40
2022-11-02T06:40:37.032Z,4.40
2022-11-02T06:43:38.678Z,4.39
2022-11-02T06:46:40.335Z,4.45
2022-11-02T06:49:41.864Z,4.59
2022-11-02T06:52:44.553Z,4.68
2022-11-02T06:55:46.105Z,4.68
2022-11-02T06:58:48.486Z,4.81
2022-11-02T07:01:54.148Z,4.83
2022-11-02T07:04:56.113Z,4.88
2022-11-02T07:07:57.732Z,4.93
2022-11-02T07:10:59.353Z,4.91
2022-11-02T07:14:01.409Z,4.88
2022-11-02T07:17:03.096Z,5.01
2022-11-02T07:20:05.678Z,5.11
2022-11-02T07:23:07.804Z,5.23
2022-11-02T07:26:09.692Z,5.27
2022-11-02T07:29:11.285Z,5.36
2022-11-02T07:32:12.837Z,5.44
2022-11-02T07:35:15.169Z,5.40
2022-11-02T07:38:16.737Z,5.38
2022-11-02T07:41:18.429Z,5.39
2022-11-02T07:44:19.933Z,5.40
2022-11-02T07:47:27.971Z,5.41
2022-11-02T07:50:29.606Z,5.46
2022-11-02T07:53:31.239Z,5.47
2022-11-02T07:56:32.736Z,5.48
2022-11-02T07:59:34.338Z,5.44
2022-11-02T08:02:36.113Z,5.42
2022-11-02T08:05:39.129Z,5.40
2022-11-02T08:08:41.360Z,5.41
2022-11-02T08:11:43.148Z,5.45
2022-11-02T08:14:44.695Z,5.61
2022-11-02T08:17:46.290Z,5.71
2022-11-02T08:20:48.631Z,5.73
2022-11-02T08:23:53.632Z,5.78
2022-11-02T08:26:59.111Z,5.80
2022-11-02T08:30:00.674Z,5.83
2022-11-02T08:33:06.146Z,5.83
2022-11-02T08:36:07.982Z,5.82
2022-11-02T08:39:12.358Z,5.79
2022-11-02T08:42:17.776Z,5.93
2022-11-02T08:45:19.627Z,6.05
2022-11-02T08:48:21.279Z,6.08
2022-11-02T08:51:22.844Z,6.03
2022-11-02T08:54:24.471Z,5.98
2022-11-02T08:57:25.984Z,5.92
2022-11-02T09:00:29.010Z,5.93
2022-11-02T09:03:30.709Z,5.89
2022-11-02T09:06:32.418Z,5.92
2022-11-02T09:09:34.241Z,5.92
2022-11-02T09:12:35.830Z,5.95
2022-11-02T09:15:37.563Z,5.98
2022-11-02T09:18:39.180Z,6.04
2022-11-02T09:21:40.748Z,6.00
2022-11-02T09:24:42.307Z,6.02
2022-11-02T09:27:43.894Z,6.08
2022-11-02T09:30:46.391Z,6.13
2022-11-02T09:33:48.147Z,6.18
2022-11-02T09:36:49.681Z,6.23
2022-11-02T09:39:51.182Z,6.26
2022-11-02T09:43:04.918Z,6.29
2022-11-02T09:46:08.055Z,6.40
2022-11-02T09:49:14.148Z,6.45
2022-11-02T09:52:21.608Z,6.59
2022-11-02T09:55:24.807Z,6.63
2022-11-02T09:58:37.560Z,6.84
2022-11-02T10:01:41.996Z,7.00
2022-11-02T10:04:49.331Z,7.06
2022-11-02T10:07:53.578Z,7.06
2022-11-02T10:11:05.402Z,6.95
2022-11-02T10:14:12.477Z,6.90
2022-11-02T10:17:26.740Z,6.82
2022-11-02T10:20:28.295Z,6.72
2022-11-02T10:23:29.785Z,6.68
2022-11-02T10:26:33.112Z,6.88
2022-11-02T10:29:40.683Z,7.09
2022-11-02T10:36:16.987Z,7.08
2022-11-02T10:39:36.156Z,7.02
2022-11-02T10:42:47.288Z,7.20
2022-11-02T10:45:58.826Z,7.25
2022-11-02T10:49:14.346Z,7.25
2022-11-02T10:52:16.157Z,7.21
2022-11-02T10:55:20.370Z,7.13
2022-11-02T10:58:22.029Z,7.06
2022-11-02T11:01:23.685Z,7.00
2022-11-02T11:04:26.087Z,6.98
2022-11-02T11:07:27.779Z,7.00
2022-11-02T11:10:29.995Z,6.97
2022-11-02T11:20:37.466Z,6.91
2022-11-02T11:23:38.964Z,6.94
2022-11-02T11:26:40.472Z,6.90
2022-11-02T11:29:46.188Z,6.90
2022-11-02T11:32:47.763Z,6.92
2022-11-02T11:35:49.871Z,6.91
2022-11-02T11:38:51.389Z,6.94
2022-11-02T11:41:52.901Z,7.04
2022-11-02T11:45:17.741Z,7.08
2022-11-02T11:48:28.038Z,7.10
2022-11-02T11:51:29.588Z,7.09
2022-11-02T11:54:32.257Z,7.10
2022-11-02T11:57:34.237Z,7.15
2022-11-02T12:00:36.106Z,7.22
2022-11-02T12:03:53.382Z,7.33
2022-11-02T12:06:58.278Z,7.41
2022-11-02T12:09:59.832Z,7.53
2022-11-02T12:13:10.192Z,7.65
2022-11-02T12:16:27.492Z,7.85
2022-11-02T12:19:34.206Z,8.05
2022-11-02T12:22:39.651Z,8.27
2022-11-02T12:25:41.334Z,8.49
2022-11-02T12:28:53.907Z,8.65
2022-11-02T12:32:01.601Z,8.89
2022-11-02T12:35:30.407Z,9.11
2022-11-02T12:38:35.163Z,9.22
2022-11-02T12:41:45.762Z,9.28
2022-11-02T12:45:02.383Z,9.29
2022-11-02T12:48:05.093Z,9.29
2022-11-02T12:51:14.836Z,9.34
2022-11-02T12:54:18.665Z,9.34
2022-11-02T12:57:21.740Z,9.32
2022-11-02T13:00:23.378Z,9.35
2022-11-02T13:03:46.955Z,9.29
2022-11-02T13:06:49.338Z,9.30
2022-11-02T13:09:56.154Z,9.28
2022-11-02T13:12:59.244Z,9.26
2022-11-02T13:16:00.874Z,9.20
2022-11-02T13:19:02.392Z,9.21
2022-11-02T13:22:03.980Z,9.28
2022-11-02T13:25:17.863Z,9.25
2022-11-02T13:28:22.198Z,9.24
2022-11-02T13:31:32.374Z,9.29
2022-11-02T13:34:34.911Z,9.25
2022-11-02T13:37:38.508Z,9.11
2022-11-02T13:40:41.154Z,9.03
2022-11-02T13:43:52.440Z,9.00
2022-11-02T13:47:00.097Z,9.00
2022-11-02T13:50:01.595Z,9.05
2022-11-02T13:53:05.233Z,9.08
2022-11-02T13:56:12.203Z,9.08
2022-11-02T13:59:21.634Z,9.11
2022-11-02T14:02:24.218Z,9.24
2022-11-02T14:05:35.335Z,9.24
2022-11-02T14:08:48.352Z,9.12
2022-11-02T14:11:49.975Z,9.07
2022-11-02T14:15:10.407Z,9.04
2022-11-02T14:18:13.080Z,9.04
2022-11-02T14:21:33.362Z,9.03
2022-11-02T14:24:34.939Z,9.04
2022-11-02T14:27:36.891Z,9.10
2022-11-02T14:30:44.001Z,9.13
2022-11-02T14:34:08.901Z,9.06
2022-11-02T14:37:49.084Z,8.98
2022-11-02T14:41:02.747Z,8.91
2022-11-02T14:44:10.091Z,8.79
2022-11-02T14:47:13.396Z,8.73
2022-11-02T14:50:15.238Z,8.68
2022-11-02T14:53:22.917Z,8.62
2022-11-02T14:56:25.074Z,8.58
2022-11-02T14:59:27.829Z,8.47
2022-11-02T15:02:40.242Z,8.43
2022-11-02T15:05:45.458Z,8.39
2022-11-02T15:08:52.203Z,8.33
2022-11-02T15:12:02.606Z,8.25
2022-11-02T15:15:22.878Z,8.22
2022-11-02T15:18:30.288Z,8.26
2022-11-02T15:21:31.974Z,8.28
2022-11-02T15:24:33.487Z,8.27
2022-11-02T15:27:35.738Z,8.26
2022-11-02T15:30:42.576Z,8.29
2022-11-02T15:33:51.525Z,8.32
2022-11-02T15:36:53.055Z,8.34
2022-11-02T15:39:55.667Z,8.36
2022-11-02T15:43:02.693Z,8.37
2022-11-02T15:46:11.933Z,8.44
2022-11-02T15:49:21.280Z,8.48
2022-11-02T15:53:01.613Z,8.50
2022-11-02T15:56:24.255Z,8.46
2022-11-02T15:59:28.595Z,8.45
2022-11-02T16:02:32.086Z,8.46
2022-11-02T16:05:34.866Z,8.53
2022-11-02T16:08:37.991Z,8.57
2022-11-02T16:11:39.649Z,8.60
2022-11-02T16:14:41.367Z,8.61
2022-11-02T16:17:43.053Z,8.61
2022-11-02T16:20:44.892Z,8.65
2022-11-02T16:23:47.379Z,8.69
2022-11-02T16:26:49.191Z,8.79
2022-11-02T16:29:51.890Z,8.88
2022-11-02T16:32:58.909Z,8.89
2022-11-02T16:36:00.481Z,8.88
2022-11-02T16:39:03.457Z,8.93
2022-11-02T16:42:08.529Z,8.95
2022-11-02T16:45:10.779Z,8.98
2022-11-02T16:48:19.294Z,9.03
2022-11-02T16:51:21.155Z,8.99
2022-11-02T16:54:35.113Z,9.06
2022-11-02T16:57:42.118Z,9.26
2022-11-02T17:01:10.288Z,9.30
2022-11-02T17:04:17.417Z,9.33
2022-11-02T17:07:23.025Z,9.34
2022-11-02T17:10:25.743Z,9.29
2022-11-02T17:13:28.665Z,9.27
2022-11-02T17:16:32.805Z,9.19
2022-11-02T17:19:40.416Z,9.14
2022-11-02T17:22:52.401Z,9.12
2022-11-02T17:25:53.940Z,9.17
2022-11-02T17:28:55.506Z,9.11
2022-11-02T17:31:58.742Z,9.05
2022-11-02T17:35:04.667Z,9.09
2022-11-02T17:38:06.871Z,9.13
2022-11-02T17:41:35.717Z,9.21
2022-11-02T17:44:37.264Z,9.29
2022-11-02T17:47:38.787Z,9.28
2022-11-02T17:50:40.397Z,9.39
2022-11-02T17:53:42.203Z,9.38
2022-11-02T17:56:43.736Z,9.33
2022-11-02T17:59:45.490Z,9.29
2022-11-02T18:02:54.128Z,9.33
2022-11-02T18:05:59.815Z,9.25
2022-11-02T18:09:11.035Z,9.31
2022-11-02T18:12:12.884Z,9.26
2022-11-02T18:15:15.667Z,9.30
2022-11-02T18:18:17.187Z,9.37
2022-11-02T18:21:18.816Z,9.41
2022-11-02T18:24:20.727Z,9.42
2022-11-02T18:27:24.908Z,9.52
2022-11-02T18:30:29.034Z,9.52
2022-11-02T18:33:30.939Z,9.51
2022-11-02T18:36:32.496Z,9.45
2022-11-02T18:39:34.145Z,9.44
2022-11-02T18:42:36.464Z,9.39
2022-11-02T18:45:37.994Z,9.33
2022-11-02T18:48:39.547Z,9.29
2022-11-02T18:51:45.693Z,9.35
2022-11-02T18:54:47.376Z,9.42
2022-11-02T18:57:50.856Z,9.43
2022-11-02T19:00:52.442Z,9.49
2022-11-02T19:03:58.266Z,9.48
2022-11-02T19:07:18.304Z,9.52
2022-11-02T19:10:19.860Z,9.55
2022-11-02T19:13:21.407Z,9.62
2022-11-02T19:16:23.172Z,9.64
2022-11-02T19:19:25.029Z,9.69
2022-11-02T19:22:26.694Z,9.78
2022-11-02T19:25:28.264Z,9.70
2022-11-02T19:28:30.256Z,9.68
2022-11-02T19:31:31.951Z,9.74
2022-11-02T19:34:34.071Z,9.69
2022-11-02T19:37:35.610Z,9.82
2022-11-02T19:40:37.154Z,9.79
2022-11-02T19:43:39.338Z,9.79
2022-11-02T19:46:40.908Z,9.73
2022-11-02T19:49:42.440Z,9.79
2022-11-02T19:52:46.541Z,9.78
2022-11-02T19:55:52.011Z,9.70
2022-11-02T19:58:53.907Z,9.70
2022-11-02T20:01:55.618Z,9.67
2022-11-02T20:04:57.691Z,9.68
2022-11-02T20:07:59.367Z,9.63
2022-11-02T20:11:08.383Z,9.54
2022-11-02T20:14:10.148Z,9.59
2022-11-02T20:17:30.842Z,9.79
2022-11-02T20:20:33.311Z,9.78
2022-11-02T20:23:35.527Z,9.83
2022-11-02T20:26:37.801Z,9.70
2022-11-02T20:29:40.635Z,9.64
2022-11-02T20:32:42.296Z,9.60
2022-11-02T20:35:44.205Z,9.52
2022-11-02T20:38:45.951Z,9.47
2022-11-02T20:41:47.816Z,9.60
2022-11-02T20:44:49.799Z,9.54
2022-11-02T20:47:52.020Z,9.43
2022-11-02T20:50:53.563Z,9.51
2022-11-02T20:53:55.228Z,9.51
2022-11-02T20:56:57.031Z,9.33
2022-11-02T20:59:58.582Z,9.28
2022-11-02T21:03:00.102Z,9.33
2022-11-02T21:06:04.988Z,9.46
2022-11-02T21:09:09.230Z,9.44
2022-11-02T21:12:32.740Z,9.45
2022-11-02T21:15:37.376Z,9.39
2022-11-02T21:18:38.986Z,9.34
2022-11-02T21:21:40.527Z,9.24
2022-11-02T21:24:42.124Z,9.10
2022-11-02T21:27:43.618Z,8.95
2022-11-02T21:30:45.122Z,8.97
2022-11-02T21:33:47.004Z,9.04
2022-11-02T21:36:48.836Z,9.01
2022-11-02T21:39:50.335Z,8.37
2022-11-02T21:42:51.931Z,7.91
2022-11-02T21:45:54.212Z,7.79
2022-11-02T21:48:55.777Z,7.72
2022-11-02T21:51:57.351Z,7.63
2022-11-02T21:54:58.866Z,7.29
2022-11-02T21:58:00.373Z,7.06
2022-11-02T22:01:22.531Z,6.87
2022-11-02T22:04:25.537Z,6.73
2022-11-02T22:07:27.301Z,6.69
2022-11-02T22:10:28.790Z,6.75
2022-11-02T22:13:33.380Z,6.93
2022-11-02T22:16:35.951Z,7.00
2022-11-02T22:19:37.478Z,6.97
2022-11-02T22:22:39.323Z,7.06
2022-11-02T22:25:41.001Z,7.17
2022-11-02T22:28:42.868Z,7.17
2022-11-02T22:31:45.112Z,7.22
2022-11-02T22:34:46.950Z,7.22
2022-11-02T22:38:07.143Z,7.28
2022-11-02T22:41:08.899Z,7.33
2022-11-02T22:44:14.630Z,7.32
2022-11-02T22:47:16.116Z,7.39
2022-11-02T22:50:17.663Z,7.43
2022-11-02T22:53:19.218Z,7.51
2022-11-02T22:56:21.343Z,7.52
2022-11-02T22:59:22.850Z,7.64
2022-11-02T23:02:24.479Z,7.61
2022-11-02T23:05:26.027Z,7.60
2022-11-02T23:11:36.424Z,7.65
2022-11-02T23:14:38.104Z,7.70
2022-11-02T23:17:39.589Z,7.72
2022-11-02T23:20:41.117Z,7.60
2022-11-02T23:24:01.381Z,7.45
2022-11-02T23:27:03.164Z,7.40
2022-11-02T23:30:23.387Z,7.39
2022-11-02T23:33:28.120Z,7.36
2022-11-02T23:36:29.608Z,7.28
2022-11-02T23:39:49.375Z,7.18
2022-11-02T23:42:51.003Z,7.16
2022-11-02T23:45:52.550Z,7.23
2022-11-02T23:48:54.023Z,7.23
2022-11-02T23:52:14.295Z,7.17
2022-11-02T23:55:34.582Z,7.16
2022-11-02T23:58:36.520Z,7.18
